Terminal Aerodrome Forecast
Issued by NWS Chicago, IL

Home | Current Version | Previous Version | Text Only | Print | Product List | Glossary Off
Versions: 1 2 3 4 5 6 7 8 9 10 11 12 13 14 15 16 17 18 19 20 21 22 23 24 25 26 27

021
FTUS43 KLOT 281120
TAFRFD
TAF
KRFD 281120Z 2812/2912 18013KT P6SM VCSH FEW015 SCT025 BKN040
      TEMPO 2812/2815 BKN020
     FM281500 19015G25KT P6SM SCT030 BKN150
     FM290000 20010KT P6SM VCSH BKN040
      TEMPO 2900/2902 3SM -TSRA BKN030CB
     FM290500 22010KT P6SM SCT035=

USA.gov is the U.S. government's official web portal to all federal, state and local government web resources and services.